Time;durP1;ratioP1;P1;durP2;ratioP2;P2;SDS_P1;SDS_P2;PMS_P1;PMS_P2;Temp;Humidity;BMP_temperature;BMP_pressure;BME280_temperature;BME280_humidity;BME280_pressure;Samples;Min_cycle;Max_cycle;Signal;HPM_P1;HPM_P2
2023/04/15 00:01:22;;;;;;;4.90;1.70;;;;;;;13.40;63.10;98603.41;4970085;28;20507;-94
2023/04/15 00:03:51;;;;;;;3.15;1.20;;;;;;;13.37;62.79;98601.34;4969625;28;20536;-94
2023/04/15 00:06:22;;;;;;;2.47;1.20;;;;;;;13.35;61.45;98579.22;4970177;28;20042;-94
2023/04/15 00:08:47;;;;;;;1.77;1.20;;;;;;;13.40;61.85;98576.38;4971368;28;20046;-95
2023/04/15 00:11:13;;;;;;;2.22;0.90;;;;;;;13.25;62.15;98552.38;4969538;28;20112;-95
2023/04/15 00:13:38;;;;;;;1.70;0.95;;;;;;;13.37;62.14;98578.91;4970941;28;20541;-95
2023/04/15 00:16:05;;;;;;;2.35;1.15;;;;;;;13.22;62.53;98524.06;4985496;28;20037;-94
2023/04/15 00:18:31;;;;;;;2.45;1.10;;;;;;;13.26;61.86;98508.00;4970381;28;20412;-95
2023/04/15 00:20:56;;;;;;;4.35;1.25;;;;;;;13.30;63.26;98515.25;4986567;28;20037;-96
2023/04/15 00:23:22;;;;;;;4.38;1.58;;;;;;;13.28;61.32;98532.81;4970909;28;20057;-94
2023/04/15 00:25:47;;;;;;;1.83;1.10;;;;;;;13.39;62.17;98555.84;4970406;28;20107;-95
2023/04/15 00:28:13;;;;;;;4.13;2.00;;;;;;;13.44;62.06;98577.34;4970227;28;20412;-94
2023/04/15 00:30:38;;;;;;;2.70;1.13;;;;;;;13.42;61.91;98593.09;4969228;28;20053;-95
2023/04/15 00:33:04;;;;;;;2.55;0.98;;;;;;;13.35;59.99;98584.63;4969716;28;20040;-94
2023/04/15 00:35:31;;;;;;;6.68;1.13;;;;;;;13.39;60.99;98593.72;4985943;28;20029;-95
2023/04/15 00:37:57;;;;;;;2.25;1.13;;;;;;;13.34;61.91;98581.13;4986754;28;20086;-95
2023/04/15 00:40:23;;;;;;;4.30;1.67;;;;;;;13.29;63.89;98577.72;4969977;28;20010;-95
2023/04/15 00:42:49;;;;;;;4.45;1.63;;;;;;;13.31;62.05;98580.91;4969918;28;20041;-95
2023/04/15 00:45:14;;;;;;;2.90;1.33;;;;;;;13.22;59.19;98566.50;4968511;28;20030;-94
2023/04/15 00:47:41;;;;;;;1.48;0.98;;;;;;;13.28;58.98;98581.50;4970024;28;20042;-94
2023/04/15 00:50:07;;;;;;;1.85;0.95;;;;;;;13.26;58.36;98562.06;4969637;28;20088;-94
2023/04/15 00:52:33;;;;;;;3.10;1.00;;;;;;;13.36;58.69;98575.38;4969896;28;20044;-94
2023/04/15 00:54:59;;;;;;;1.70;1.00;;;;;;;13.32;57.79;98594.16;4970205;28;20041;-94
2023/04/15 00:57:24;;;;;;;2.38;0.80;;;;;;;13.29;58.60;98578.53;4969570;28;20037;-94
2023/04/15 00:59:50;;;;;;;3.25;1.10;;;;;;;13.30;59.82;98566.63;4968921;28;20033;-94
2023/04/15 01:02:15;;;;;;;1.30;0.90;;;;;;;13.27;61.43;98566.38;4969046;28;20100;-94
2023/04/15 01:04:41;;;;;;;5.32;0.93;;;;;;;13.28;60.48;98579.59;4970089;28;20049;-95
2023/04/15 01:07:08;;;;;;;3.75;1.50;;;;;;;13.37;60.23;98601.34;4985174;28;20037;-94
2023/04/15 01:09:33;;;;;;;3.92;1.42;;;;;;;13.34;60.49;98610.03;4968902;28;20041;-94
2023/04/15 01:11:59;;;;;;;3.20;1.25;;;;;;;13.40;60.53;98619.63;4969084;28;20041;-95
2023/04/15 01:14:24;;;;;;;1.88;0.98;;;;;;;13.38;61.92;98611.03;4968623;28;20515;-94
2023/04/15 01:16:51;;;;;;;2.17;0.82;;;;;;;13.34;60.14;98588.41;4970087;28;20112;-95
2023/04/15 01:19:17;;;;;;;4.43;1.90;;;;;;;13.33;61.67;98563.28;4968905;28;20021;-95
2023/04/15 01:21:42;;;;;;;3.42;1.20;;;;;;;13.20;61.31;98536.25;4985606;28;20062;-94
2023/04/15 01:24:09;;;;;;;1.38;1.08;;;;;;;13.28;61.79;98546.34;4969088;28;20038;-95
2023/04/15 01:26:38;;;;;;;5.65;1.42;;;;;;;13.16;61.77;98538.81;4984761;28;20073;-95
2023/04/15 01:29:03;;;;;;;2.47;1.50;;;;;;;13.03;62.13;98543.16;4969182;28;20041;-95
2023/04/15 01:31:28;;;;;;;2.28;1.30;;;;;;;13.03;62.27;98553.97;4969792;28;20034;-94
2023/04/15 01:33:54;;;;;;;4.68;1.55;;;;;;;13.00;62.47;98562.66;4969131;28;20030;-94
2023/04/15 01:36:19;;;;;;;1.75;1.20;;;;;;;13.04;62.04;98590.66;4968690;28;20026;-94
2023/04/15 01:38:45;;;;;;;4.55;1.48;;;;;;;12.99;61.75;98582.69;4968841;28;20416;-95
2023/04/15 01:41:12;;;;;;;2.17;1.30;;;;;;;13.05;61.53;98597.69;4970027;28;20037;-94
2023/04/15 01:43:37;;;;;;;7.43;1.67;;;;;;;13.00;60.79;98567.28;4968687;28;20025;-94
2023/04/15 01:46:03;;;;;;;3.92;1.40;;;;;;;13.08;61.99;98571.94;4967348;28;20034;-94
2023/04/15 01:48:28;;;;;;;4.40;1.27;;;;;;;13.01;61.19;98566.16;4968186;28;20512;-95
2023/04/15 01:50:54;;;;;;;4.53;1.17;;;;;;;12.99;61.51;98561.06;4969986;28;20033;-94
2023/04/15 01:53:20;;;;;;;3.45;1.10;;;;;;;12.94;63.74;98566.56;4985465;28;20025;-93
2023/04/15 01:55:45;;;;;;;3.28;1.40;;;;;;;12.99;64.07;98569.19;4984004;28;20046;-94
2023/04/15 01:58:11;;;;;;;2.70;1.30;;;;;;;12.96;63.19;98556.25;4985766;28;20401;-95
2023/04/15 02:00:36;;;;;;;5.05;1.33;;;;;;;12.95;62.33;98519.56;4968988;28;20092;-94
2023/04/15 02:03:02;;;;;;;4.93;1.23;;;;;;;12.91;63.62;98505.06;4969067;28;20033;-94
2023/04/15 02:05:27;;;;;;;2.30;1.27;;;;;;;12.89;63.92;98520.78;4970862;28;20041;-95
2023/04/15 02:07:53;;;;;;;2.63;1.65;;;;;;;12.82;64.50;98526.56;4973239;28;20057;-95
2023/04/15 02:10:18;;;;;;;4.28;2.67;;;;;;;12.84;63.61;98548.69;4973304;28;20435;-94
2023/04/15 02:12:44;;;;;;;4.60;1.52;;;;;;;12.86;65.02;98575.41;4972146;28;20393;-94
2023/04/15 02:15:10;;;;;;;4.82;2.17;;;;;;;12.73;65.29;98582.44;4971391;28;20030;-94
2023/04/15 02:17:36;;;;;;;4.00;1.77;;;;;;;12.80;65.30;98593.59;4973076;28;20038;-94
2023/04/15 02:20:04;;;;;;;5.80;2.08;;;;;;;12.72;65.84;98592.44;4972763;28;20026;-95
2023/04/15 02:22:30;;;;;;;3.08;1.80;;;;;;;12.61;66.04;98591.03;4974102;28;20092;-94
2023/04/15 02:24:55;;;;;;;5.70;2.30;;;;;;;12.55;67.33;98586.81;4987308;28;20141;-94
2023/04/15 02:27:21;;;;;;;3.80;2.00;;;;;;;12.55;67.27;98581.44;4989184;28;20100;-94
2023/04/15 02:29:46;;;;;;;3.85;2.13;;;;;;;12.62;67.55;98589.94;4971658;28;20042;-94
2023/04/15 02:32:12;;;;;;;4.88;2.10;;;;;;;12.43;67.69;98551.44;4972488;28;20065;-94
2023/04/15 02:34:40;;;;;;;4.78;2.20;;;;;;;12.54;67.41;98558.25;4970955;28;20057;-95
2023/04/15 02:37:06;;;;;;;4.07;2.00;;;;;;;12.54;66.67;98556.34;4971961;28;20042;-94
2023/04/15 02:39:33;;;;;;;5.68;2.10;;;;;;;12.55;65.46;98557.13;4970571;28;20026;-94
2023/04/15 02:41:59;;;;;;;3.90;2.35;;;;;;;12.49;67.23;98566.44;5003528;28;20096;-94
2023/04/15 02:44:26;;;;;;;4.47;2.10;;;;;;;12.53;65.55;98589.03;4970422;28;20045;-95
2023/04/15 02:46:53;;;;;;;5.53;2.10;;;;;;;12.48;62.96;98603.44;4971139;28;20038;-94
2023/04/15 02:49:19;;;;;;;4.63;2.10;;;;;;;12.58;62.59;98607.06;4971215;28;20038;-95
2023/04/15 02:51:48;;;;;;;7.72;2.20;;;;;;;12.55;62.45;98603.03;4971305;28;20100;-94
2023/04/15 02:54:19;;;;;;;4.82;1.65;;;;;;;12.58;61.86;98596.25;4987738;28;20038;-94
2023/04/15 02:56:45;;;;;;;4.10;1.58;;;;;;;12.60;61.44;98605.66;4971397;28;20416;-94
2023/04/15 02:59:11;;;;;;;4.03;2.17;;;;;;;12.37;67.30;98615.53;4971606;28;20060;-94
2023/04/15 03:01:37;;;;;;;3.53;2.28;;;;;;;12.13;68.83;98624.59;4972053;28;20128;-94
2023/04/15 03:04:02;;;;;;;5.95;2.55;;;;;;;12.08;68.67;98626.59;4971963;28;20033;-94
2023/04/15 03:06:28;;;;;;;5.85;2.45;;;;;;;12.17;68.46;98630.19;4970880;28;20034;-94
2023/04/15 03:08:53;;;;;;;5.35;2.20;;;;;;;12.12;68.78;98614.13;4971309;28;20045;-94
2023/04/15 03:11:19;;;;;;;8.65;2.63;;;;;;;12.12;68.77;98631.09;4970085;28;20129;-93
2023/04/15 03:13:44;;;;;;;4.10;2.30;;;;;;;12.04;69.32;98622.88;4971795;28;20460;-93
2023/04/15 03:16:11;;;;;;;3.33;2.20;;;;;;;12.01;68.53;98609.97;4969479;28;20080;-94
2023/04/15 03:18:37;;;;;;;6.30;2.25;;;;;;;12.09;68.11;98603.91;4972509;28;20112;-94
2023/04/15 03:21:02;;;;;;;5.85;2.85;;;;;;;12.15;67.28;98589.22;4971042;28;20083;-94
2023/04/15 03:23:30;;;;;;;5.20;2.40;;;;;;;12.25;67.92;98599.81;4971060;28;20069;-94
2023/04/15 03:25:56;;;;;;;6.28;2.58;;;;;;;12.27;68.98;98613.81;4970073;28;20477;-94
2023/04/15 03:28:22;;;;;;;2.53;2.00;;;;;;;12.24;68.82;98616.31;4971307;28;20527;-94
2023/04/15 03:30:48;;;;;;;7.25;2.78;;;;;;;12.16;68.92;98590.00;4970638;28;20121;-96
2023/04/15 03:33:13;;;;;;;5.28;2.80;;;;;;;12.13;68.60;98575.22;4971263;28;20038;-94
2023/04/15 03:35:38;;;;;;;5.18;3.10;;;;;;;12.21;68.42;98579.94;4969726;28;20096;-94
2023/04/15 03:38:04;;;;;;;6.40;2.75;;;;;;;12.24;68.48;98589.31;4970426;28;20033;-94
2023/04/15 03:40:30;;;;;;;6.07;2.75;;;;;;;12.20;68.62;98583.75;4986466;28;20037;-95
2023/04/15 03:42:55;;;;;;;7.18;2.63;;;;;;;12.21;68.92;98577.22;4969805;28;20038;-93
2023/04/15 03:45:21;;;;;;;4.20;2.70;;;;;;;12.11;70.08;98590.91;4969807;28;20033;-94
2023/04/15 03:47:46;;;;;;;5.65;2.78;;;;;;;12.31;70.00;98614.03;4970167;28;20099;-95
2023/04/15 03:50:12;;;;;;;4.68;2.72;;;;;;;12.28;67.97;98612.72;4969990;28;20029;-95
2023/04/15 03:52:37;;;;;;;9.88;4.40;;;;;;;12.34;65.18;98630.41;4969904;28;20475;-94
2023/04/15 03:55:03;;;;;;;7.80;3.80;;;;;;;12.38;65.87;98646.81;4970163;28;20038;-94
2023/04/15 03:57:28;;;;;;;5.47;2.90;;;;;;;12.27;64.08;98635.41;4970334;28;20041;-94
2023/04/15 03:59:54;;;;;;;6.53;2.95;;;;;;;12.29;63.72;98646.72;4971734;28;20030;-95
2023/04/15 04:02:19;;;;;;;4.63;2.60;;;;;;;12.27;62.80;98651.59;4985800;28;20053;-95
2023/04/15 04:04:45;;;;;;;6.10;2.95;;;;;;;12.32;64.13;98648.81;4969680;28;20049;-95
2023/04/15 04:07:17;;;;;;;6.03;3.10;;;;;;;12.42;63.72;98664.03;4970681;28;20038;-94
2023/04/15 04:09:42;;;;;;;7.40;2.65;;;;;;;12.36;64.49;98656.31;4970130;28;20057;-95
2023/04/15 04:12:07;;;;;;;4.32;2.00;;;;;;;12.33;67.61;98680.13;4971312;28;20519;-94
2023/04/15 04:14:33;;;;;;;3.00;2.00;;;;;;;12.21;68.57;98679.78;4970399;28;20100;-94
2023/04/15 04:16:58;;;;;;;5.35;2.20;;;;;;;12.15;68.78;98685.56;4970400;28;20080;-95
2023/04/15 04:19:24;;;;;;;6.50;2.25;;;;;;;12.02;69.76;98684.44;4970875;28;20030;-95
2023/04/15 04:21:50;;;;;;;5.57;2.60;;;;;;;11.99;69.57;98675.00;4969110;28;20034;-96
2023/04/15 04:24:15;;;;;;;3.63;2.55;;;;;;;11.91;69.71;98676.50;4971220;28;20038;-94
2023/04/15 04:26:41;;;;;;;8.38;2.90;;;;;;;11.95;69.81;98675.91;4969080;28;20038;-95
2023/04/15 04:29:06;;;;;;;5.50;3.20;;;;;;;11.91;69.71;98679.22;4970894;28;20037;-94
2023/04/15 04:31:32;;;;;;;5.55;3.80;;;;;;;11.87;69.58;98674.63;4969618;28;20042;-94
2023/04/15 04:33:57;;;;;;;7.05;3.50;;;;;;;11.91;69.24;98692.69;4970053;28;20080;-95
2023/04/15 04:36:23;;;;;;;8.77;3.50;;;;;;;11.87;69.13;98688.94;4968485;28;20412;-95
2023/04/15 04:38:48;;;;;;;8.68;3.42;;;;;;;11.79;69.31;98697.69;4970838;28;20033;-94
2023/04/15 04:41:14;;;;;;;7.82;3.63;;;;;;;11.77;69.03;98696.41;4970163;28;20030;-96
2023/04/15 04:43:39;;;;;;;9.75;3.42;;;;;;;11.95;68.38;98709.06;4970534;28;20385;-95
2023/04/15 04:46:05;;;;;;;5.18;3.05;;;;;;;12.11;67.96;98728.53;4968956;28;20026;-94
2023/04/15 04:48:30;;;;;;;7.25;3.50;;;;;;;12.19;68.19;98740.56;4970794;28;20036;-95
2023/04/15 04:50:56;;;;;;;7.88;2.90;;;;;;;12.08;69.46;98734.53;4970570;28;20042;-95
2023/04/15 04:53:21;;;;;;;8.43;2.83;;;;;;;12.02;70.34;98743.81;4970962;28;20034;-95
2023/04/15 04:55:47;;;;;;;9.13;3.03;;;;;;;11.93;70.75;98749.84;4968553;28;20034;-93
2023/04/15 04:58:12;;;;;;;10.20;3.47;;;;;;;12.10;69.34;98745.84;4969670;28;20037;-93
2023/04/15 05:00:39;;;;;;;5.10;3.08;;;;;;;12.11;68.21;98744.72;4969908;28;20415;-94
2023/04/15 05:03:05;;;;;;;7.18;2.58;;;;;;;12.18;67.68;98753.25;4969553;28;20045;-94
2023/04/15 05:05:30;;;;;;;7.07;3.13;;;;;;;12.13;68.21;98751.44;4968904;28;20025;-95
2023/04/15 05:07:56;;;;;;;6.75;2.78;;;;;;;12.42;66.73;98773.94;4968795;28;20033;-94
2023/04/15 05:10:21;;;;;;;8.38;2.90;;;;;;;12.66;65.75;98806.22;4985387;28;20048;-94
2023/04/15 05:12:47;;;;;;;6.05;2.75;;;;;;;12.43;66.00;98745.81;4972072;28;20073;-95
2023/04/15 05:15:12;;;;;;;7.78;2.92;;;;;;;12.51;66.73;98747.84;4970675;28;20090;-95
2023/04/15 05:17:38;;;;;;;8.50;3.15;;;;;;;12.64;66.28;98751.69;4970453;28;20057;-95
2023/04/15 05:20:04;;;;;;;8.18;2.80;;;;;;;12.70;65.76;98740.50;4970564;28;20017;-94
2023/04/15 05:22:29;;;;;;;6.53;3.60;;;;;;;12.69;65.37;98738.88;4969770;28;20041;-95
2023/04/15 05:24:55;;;;;;;5.07;2.55;;;;;;;12.76;64.12;98751.19;4970310;28;20037;-95
2023/04/15 05:27:21;;;;;;;4.55;2.40;;;;;;;12.73;63.47;98758.00;4986339;28;20492;-96
2023/04/15 05:29:47;;;;;;;4.40;2.50;;;;;;;12.50;62.98;98720.03;4970558;28;20416;-95
2023/04/15 05:32:14;;;;;;;3.55;1.90;;;;;;;12.84;62.43;98724.28;4970086;28;20037;-94
2023/04/15 05:34:40;;;;;;;4.80;2.17;;;;;;;13.08;61.35;98737.63;5005440;28;20404;-93
2023/04/15 05:37:06;;;;;;;5.55;2.40;;;;;;;13.25;61.25;98742.41;4975129;28;20128;-93
2023/04/15 05:39:31;;;;;;;5.50;3.10;;;;;;;13.48;60.43;98750.63;4971310;28;20056;-92
2023/04/15 05:41:57;;;;;;;11.00;3.60;;;;;;;13.61;61.07;98752.50;4974448;28;20029;-93
2023/04/15 05:44:22;;;;;;;11.48;3.72;;;;;;;13.49;62.52;98750.34;4973231;28;20025;-93
2023/04/15 05:46:48;;;;;;;5.93;3.33;;;;;;;13.44;63.73;98752.34;4975061;28;20049;-93
2023/04/15 05:49:13;;;;;;;15.75;3.97;;;;;;;13.45;63.42;98765.56;4972221;28;20053;-94
2023/04/15 05:51:39;;;;;;;10.20;4.22;;;;;;;13.45;63.10;98772.88;4973461;28;20037;-93
2023/04/15 05:54:05;;;;;;;6.05;3.47;;;;;;;13.35;62.31;98754.97;4976679;28;20034;-94
2023/04/15 05:56:31;;;;;;;7.72;3.13;;;;;;;13.58;62.18;98761.25;4973733;28;20105;-94
2023/04/15 05:59:00;;;;;;;5.57;3.78;;;;;;;13.46;61.89;98744.72;4974376;28;20139;-93
2023/04/15 06:01:26;;;;;;;8.55;3.28;;;;;;;13.49;60.72;98731.41;4974475;28;20026;-94
2023/04/15 06:03:51;;;;;;;5.78;3.45;;;;;;;13.57;61.28;98764.25;4973706;28;20049;-94
2023/04/15 06:06:17;;;;;;;8.23;4.75;;;;;;;13.51;61.40;98752.75;4989968;28;20041;-94
2023/04/15 06:08:43;;;;;;;6.57;3.70;;;;;;;13.64;62.07;98760.03;4973450;28;20081;-94
2023/04/15 06:11:08;;;;;;;8.60;3.33;;;;;;;13.75;61.14;98766.81;4973208;28;20042;-93
2023/04/15 06:13:34;;;;;;;7.10;3.80;;;;;;;13.60;61.16;98742.00;4972415;28;20056;-94
2023/04/15 06:15:59;;;;;;;6.28;3.40;;;;;;;13.58;60.84;98741.50;4988647;28;20088;-94
2023/04/15 06:18:25;;;;;;;11.73;3.78;;;;;;;13.77;60.44;98763.81;4973950;28;20081;-94
2023/04/15 06:20:50;;;;;;;7.07;3.85;;;;;;;13.91;59.16;98769.97;4973011;28;20018;-95
2023/04/15 06:23:16;;;;;;;13.65;3.78;;;;;;;14.02;58.98;98783.28;4972673;28;20021;-94
2023/04/15 06:25:41;;;;;;;6.00;3.63;;;;;;;14.02;57.73;98800.31;4972700;28;20025;-94
2023/04/15 06:28:07;;;;;;;7.57;2.80;;;;;;;14.07;56.08;98785.84;4989622;28;20068;-95
2023/04/15 06:30:32;;;;;;;3.10;2.03;;;;;;;14.31;48.90;98809.97;4973107;28;20042;-95
2023/04/15 06:32:58;;;;;;;1.77;1.13;;;;;;;14.33;48.38;98805.81;4989179;28;20036;-95
2023/04/15 06:35:23;;;;;;;2.30;1.17;;;;;;;14.46;47.44;98803.38;4971999;28;20091;-95
2023/04/15 06:37:49;;;;;;;1.55;0.90;;;;;;;14.59;47.20;98805.25;4972215;28;20101;-93
2023/04/15 06:40:14;;;;;;;4.95;1.25;;;;;;;14.55;46.25;98791.53;4972433;28;20049;-96
2023/04/15 06:42:40;;;;;;;2.83;1.30;;;;;;;14.75;46.98;98800.22;4971782;28;20029;-95
2023/04/15 06:45:07;;;;;;;2.13;1.10;;;;;;;14.80;45.99;98804.75;4972877;28;20061;-94
2023/04/15 06:47:33;;;;;;;2.47;1.38;;;;;;;14.91;45.06;98822.34;4972709;28;20030;-95
2023/04/15 06:49:58;;;;;;;3.72;1.20;;;;;;;14.97;46.39;98817.59;4972686;28;20037;-94
2023/04/15 06:52:24;;;;;;;2.53;1.30;;;;;;;15.07;46.56;98828.97;4972873;28;20041;-94
2023/04/15 06:54:50;;;;;;;3.58;1.40;;;;;;;15.20;45.20;98821.06;4972763;28;20044;-93
2023/04/15 06:57:15;;;;;;;3.78;1.30;;;;;;;15.34;44.84;98832.59;4973261;28;20041;-92
2023/04/15 06:59:43;;;;;;;5.15;1.40;;;;;;;15.15;46.44;98798.38;4989565;28;20488;-94
2023/04/15 07:02:09;;;;;;;2.33;1.27;;;;;;;15.35;45.92;98818.69;4975575;28;20037;-95
2023/04/15 07:04:36;;;;;;;2.03;1.02;;;;;;;15.40;41.50;98812.34;4992187;28;20098;-94
2023/04/15 07:07:02;;;;;;;2.30;1.10;;;;;;;15.34;42.21;98819.81;4992273;28;20033;-95
2023/04/15 07:09:27;;;;;;;2.47;1.17;;;;;;;15.53;43.05;98837.78;4929026;28;1310153;-95
2023/04/15 07:11:54;;;;;;;2.00;1.08;;;;;;;15.56;43.47;98828.97;4974429;28;20320;-94
2023/04/15 07:14:19;;;;;;;1.63;1.02;;;;;;;15.60;41.38;98829.97;5005874;28;20080;-93
2023/04/15 07:16:45;;;;;;;2.10;1.00;;;;;;;15.65;41.37;98820.91;4974214;28;20061;-95
2023/04/15 07:19:10;;;;;;;3.95;0.80;;;;;;;15.65;41.11;98812.75;4974000;28;20036;-92
2023/04/15 07:21:36;;;;;;;3.28;1.02;;;;;;;15.87;41.01;98828.13;4972002;28;20077;-95
2023/04/15 07:24:02;;;;;;;1.77;1.10;;;;;;;15.74;39.08;98819.81;4972371;28;20072;-94
2023/04/15 07:26:27;;;;;;;1.38;1.00;;;;;;;15.94;39.86;98829.28;4972438;28;20562;-95
2023/04/15 07:28:56;;;;;;;5.85;1.10;;;;;;;15.96;40.32;98829.75;4973918;28;20404;-95
2023/04/15 07:31:22;;;;;;;2.10;1.20;;;;;;;16.03;40.76;98844.78;4974393;28;20033;-95
2023/04/15 07:33:47;;;;;;;10.90;1.50;;;;;;;16.03;40.68;98828.50;4991654;28;20554;-94
2023/04/15 07:36:13;;;;;;;2.17;1.08;;;;;;;16.17;38.01;98837.28;4975738;28;20042;-95
2023/04/15 07:38:38;;;;;;;4.72;0.88;;;;;;;16.32;38.24;98844.94;4976186;28;20029;-94
2023/04/15 07:41:04;;;;;;;2.15;0.93;;;;;;;16.48;38.34;98849.94;4975676;28;20056;-93
2023/04/15 07:43:29;;;;;;;0.90;0.70;;;;;;;16.40;35.92;98832.50;4975392;28;20220;-89
2023/04/15 07:45:55;;;;;;;1.33;0.73;;;;;;;16.56;35.31;98852.63;4968540;28;20041;-89
2023/04/15 07:48:20;;;;;;;1.15;0.63;;;;;;;16.56;35.28;98844.47;4968312;28;20038;-90
2023/04/15 07:50:48;;;;;;;0.90;0.70;;;;;;;16.67;34.64;98850.38;4971022;28;20037;-95
2023/04/15 07:53:14;;;;;;;4.00;0.90;;;;;;;16.63;35.23;98854.06;4975931;28;20022;-96
2023/04/15 07:55:40;;;;;;;2.15;0.80;;;;;;;16.46;35.39;98836.66;4974660;28;20034;-95
2023/04/15 07:58:05;;;;;;;3.25;2.00;;;;;;;16.39;35.80;98844.47;4973202;28;20045;-93
2023/04/15 08:00:31;;;;;;;1.75;0.63;;;;;;;16.53;34.67;98828.00;4971487;28;20160;-94
2023/04/15 08:02:58;;;;;;;2.05;0.80;;;;;;;16.50;34.97;98847.69;4969812;28;20040;-93
2023/04/15 08:05:24;;;;;;;2.65;1.60;;;;;;;16.56;33.94;98832.81;4971797;28;20120;-94
2023/04/15 08:07:50;;;;;;;2.42;0.70;;;;;;;16.80;33.14;98843.16;4979825;28;20054;-94
2023/04/15 08:10:16;;;;;;;2.05;0.95;;;;;;;17.00;33.11;98852.59;4982450;28;20128;-95
2023/04/15 08:12:41;;;;;;;2.15;0.88;;;;;;;17.14;32.15;98857.81;4971746;28;20477;-94
2023/04/15 08:15:08;;;;;;;3.88;0.80;;;;;;;17.23;32.26;98864.06;4983144;28;20038;-94
2023/04/15 08:17:33;;;;;;;1.00;0.70;;;;;;;17.06;32.75;98840.41;4984311;28;20113;-95
2023/04/15 08:19:59;;;;;;;1.48;0.70;;;;;;;17.21;33.66;98868.22;4988217;28;20073;-95
2023/04/15 08:22:24;;;;;;;1.10;0.80;;;;;;;17.01;33.00;98843.31;4986705;28;20467;-94
2023/04/15 08:24:50;;;;;;;2.35;0.60;;;;;;;17.11;33.36;98856.56;4986999;28;20044;-92
2023/04/15 08:27:16;;;;;;;2.28;0.80;;;;;;;17.09;32.67;98866.97;4970736;28;20029;-93
2023/04/15 08:29:41;;;;;;;1.10;0.63;;;;;;;17.08;33.58;98864.56;4970140;28;20060;-93
2023/04/15 08:32:07;;;;;;;1.83;0.63;;;;;;;16.92;31.69;98861.56;4969666;28;20068;-93
2023/04/15 08:34:33;;;;;;;2.88;0.60;;;;;;;16.82;32.49;98853.75;4969854;28;20033;-93
2023/04/15 08:36:59;;;;;;;3.30;0.80;;;;;;;17.05;34.19;98865.22;4970348;28;20091;-93
2023/04/15 08:39:25;;;;;;;1.05;0.60;;;;;;;17.23;34.60;98890.47;4969301;28;20017;-94
2023/04/15 08:42:04;;;;;;;1.40;0.55;;;;;;;17.04;33.12;98872.59;4985473;28;20029;-94
2023/04/15 08:44:32;;;;;;;0.93;0.75;;;;;;;17.08;33.88;98884.41;4971831;28;20034;-96
2023/04/15 08:47:01;;;;;;;1.42;0.70;;;;;;;16.81;34.16;98855.69;4971581;28;20096;-94
2023/04/15 08:49:27;;;;;;;1.05;0.70;;;;;;;17.00;33.84;98874.34;4969935;28;20017;-95
2023/04/15 08:51:52;;;;;;;1.70;0.90;;;;;;;16.91;35.04;98858.06;4970464;28;20037;-95
2023/04/15 08:54:18;;;;;;;1.73;0.70;;;;;;;17.01;33.55;98873.22;4970508;28;20053;-93
2023/04/15 08:56:44;;;;;;;4.00;0.75;;;;;;;16.94;34.08;98843.81;4986259;28;20042;-96
2023/04/15 08:59:10;;;;;;;0.80;0.70;;;;;;;17.15;33.96;98857.50;4971657;28;20029;-96
2023/04/15 09:01:36;;;;;;;2.17;0.73;;;;;;;17.01;34.48;98837.84;4969003;28;20044;-96
2023/04/15 09:04:02;;;;;;;3.95;0.90;;;;;;;17.23;35.52;98883.09;4971164;28;20034;-95
2023/04/15 09:06:28;;;;;;;1.50;0.80;;;;;;;17.12;35.31;98868.22;4986248;28;20042;-96
2023/04/15 09:08:53;;;;;;;3.75;1.58;;;;;;;17.31;36.47;98879.56;4986320;28;20049;-95
2023/04/15 09:11:20;;;;;;;3.35;1.25;;;;;;;17.22;35.79;98862.44;4968976;28;20049;-96
2023/04/15 09:13:48;;;;;;;3.13;1.00;;;;;;;17.35;34.53;98869.63;4970772;28;20419;-95
2023/04/15 09:16:14;;;;;;;2.15;0.98;;;;;;;17.46;33.81;98855.66;4969834;28;20120;-95
2023/04/15 09:18:40;;;;;;;2.67;0.70;;;;;;;17.49;33.46;98844.09;4970983;28;20020;-96
2023/04/15 09:21:07;;;;;;;1.00;0.70;;;;;;;17.51;33.66;98845.34;4969894;28;20033;-95
2023/04/15 09:23:33;;;;;;;2.53;1.00;;;;;;;17.64;33.70;98848.19;4970917;28;20049;-96
2023/04/15 09:25:59;;;;;;;1.55;0.85;;;;;;;17.67;34.13;98840.16;4986854;28;20042;-95
2023/04/15 09:28:27;;;;;;;1.70;0.80;;;;;;;17.72;33.59;98847.34;4985269;28;20038;-95
2023/04/15 09:30:59;;;;;;;4.05;1.00;;;;;;;17.83;33.54;98858.72;4970220;28;20126;-95
2023/04/15 09:33:28;;;;;;;1.38;0.70;;;;;;;17.70;33.92;98836.78;4969612;28;20037;-93
2023/04/15 09:36:02;;;;;;;1.33;0.80;;;;;;;17.73;33.98;98854.38;4985718;28;20026;-93
2023/04/15 09:38:27;;;;;;;3.15;0.70;;;;;;;17.67;33.84;98832.00;4969753;28;20038;-93
2023/04/15 09:40:53;;;;;;;3.00;0.85;;;;;;;17.81;33.35;98839.13;4970387;28;20150;-92
2023/04/15 09:43:19;;;;;;;3.17;0.85;;;;;;;17.85;33.75;98832.72;4968104;28;20037;-94
2023/04/15 09:45:48;;;;;;;2.40;0.82;;;;;;;17.89;33.10;98835.59;4969726;28;20038;-93
2023/04/15 09:48:19;;;;;;;1.98;0.60;;;;;;;18.01;32.46;98843.81;5001513;28;20117;-93
2023/04/15 09:50:49;;;;;;;2.00;1.00;;;;;;;18.06;33.38;98853.75;5002902;28;20126;-93
2023/04/15 09:53:19;;;;;;;2.58;0.80;;;;;;;17.93;32.02;98822.91;4970012;28;20034;-94
2023/04/15 09:55:46;;;;;;;2.97;0.90;;;;;;;18.06;32.64;98843.66;4968637;28;20033;-94
2023/04/15 09:58:19;;;;;;;1.27;0.80;;;;;;;18.17;33.00;98850.28;4976373;28;20041;-93
2023/04/15 10:00:46;;;;;;;2.13;0.80;;;;;;;18.03;34.23;98849.75;4984052;28;20049;-93
2023/04/15 10:03:15;;;;;;;4.25;0.90;;;;;;;18.20;33.94;98853.47;4968672;28;20028;-94
2023/04/15 10:05:41;;;;;;;1.38;0.77;;;;;;;18.29;33.79;98846.84;4968157;28;20508;-92
2023/04/15 10:08:07;;;;;;;1.92;1.08;;;;;;;18.30;34.79;98848.44;4983818;28;20108;-92
2023/04/15 10:10:33;;;;;;;1.77;0.90;;;;;;;18.12;34.79;98823.25;4969332;28;20461;-92
2023/04/15 10:12:58;;;;;;;1.80;0.88;;;;;;;18.30;34.72;98836.72;4969409;28;20048;-94
2023/04/15 10:15:24;;;;;;;6.88;0.80;;;;;;;18.03;34.50;98832.59;4969333;28;20026;-91
2023/04/15 10:17:49;;;;;;;2.55;1.60;;;;;;;18.05;35.36;98830.34;4968409;28;20018;-93
2023/04/15 10:20:15;;;;;;;1.80;0.90;;;;;;;17.91;34.85;98812.34;4968547;28;20116;-93
2023/04/15 10:22:41;;;;;;;1.30;0.70;;;;;;;18.03;35.66;98835.31;4967738;28;20474;-93
2023/04/15 10:25:06;;;;;;;0.95;0.80;;;;;;;18.12;35.51;98841.53;4968107;28;20029;-93
2023/04/15 10:27:32;;;;;;;2.97;0.82;;;;;;;18.10;35.73;98825.50;4972127;28;20057;-93
2023/04/15 10:29:59;;;;;;;0.90;0.70;;;;;;;18.18;34.87;98821.91;5004127;28;20125;-94
2023/04/15 10:32:25;;;;;;;2.60;1.00;;;;;;;18.16;34.96;98826.13;4974747;28;20040;-94
2023/04/15 10:34:51;;;;;;;1.98;1.05;;;;;;;18.15;35.75;98822.56;4984317;28;20042;-94
2023/04/15 10:37:21;;;;;;;2.05;0.93;;;;;;;18.23;35.73;98844.66;4971541;28;20133;-93
2023/04/15 10:39:47;;;;;;;3.38;0.95;;;;;;;18.40;35.59;98841.78;4972711;28;20528;-93
2023/04/15 10:42:14;;;;;;;1.52;0.98;;;;;;;18.34;35.19;98834.94;4986603;28;20037;-94
2023/04/15 10:44:45;;;;;;;1.35;0.80;;;;;;;18.25;35.36;98826.03;4988684;28;20030;-93
2023/04/15 10:47:11;;;;;;;1.48;0.88;;;;;;;18.52;34.44;98841.03;4988625;28;20075;-95
2023/04/15 10:49:56;;;;;;;1.98;0.70;;;;;;;18.46;34.74;98820.56;4990711;28;20037;-94
2023/04/15 10:52:23;;;;;;;2.88;0.95;;;;;;;18.62;34.59;98824.28;4974325;28;20041;-92
2023/04/15 10:54:49;;;;;;;2.42;0.90;;;;;;;18.67;33.86;98829.50;4973269;28;20037;-93
2023/04/15 10:57:21;;;;;;;5.85;1.10;;;;;;;18.61;34.31;98814.47;4971253;28;20033;-94
2023/04/15 11:00:27;;;;;;;3.00;1.58;;;;;;;18.59;33.80;98830.38;4988442;28;20085;-93
2023/04/15 11:02:57;;;;;;;1.27;0.65;;;;;;;18.59;33.62;98814.03;4910923;29;20035;-94
2023/04/15 11:05:48;;;;;;;2.53;0.88;;;;;;;18.95;32.86;98824.28;4980154;28;20095;-94
2023/04/15 11:08:15;;;;;;;2.28;0.90;;;;;;;19.10;32.97;98813.84;5000148;28;20120;-93
2023/04/15 11:10:40;;;;;;;1.17;0.88;;;;;;;19.17;32.84;98834.00;4985482;28;20046;-93
2023/04/15 11:13:09;;;;;;;2.30;0.90;;;;;;;19.60;32.13;98840.03;5000595;28;20039;-93
2023/04/15 11:15:43;;;;;;;3.05;0.75;;;;;;;19.68;31.27;98813.75;4985199;28;20063;-92
2023/04/15 11:18:15;;;;;;;0.70;0.50;;;;;;;19.70;31.61;98819.69;4984590;28;20543;-93
2023/04/15 11:20:44;;;;;;;0.88;0.60;;;;;;;19.84;31.71;98811.13;5000792;28;20041;-93
2023/04/15 11:23:09;;;;;;;3.72;1.20;;;;;;;19.64;32.34;98804.66;4983856;28;20058;-93
2023/04/15 11:25:37;;;;;;;1.60;0.93;;;;;;;19.87;32.50;98810.47;4985365;28;20038;-93
2023/04/15 11:28:03;;;;;;;2.47;1.60;;;;;;;19.85;32.48;98797.13;4967637;28;20138;-95
2023/04/15 11:30:33;;;;;;;2.88;1.30;;;;;;;19.99;32.03;98781.19;4985179;28;20101;-95